PWSweather.com
Personal Weather Stations
Station Observations
KAZSIERR7
Canyon De Flores, Sierra Vista, AZ 85650

Canyon De FloresSierra Vista, AZ 85650

Lat: 31.5, Lon: -110.26

Elevation: 4645

Station Type: LaCrosse WS-3610 & Boltek Lightning Detector

http://www.lightningring.com/weather/

High Low Average
Temperature 83.5°F28.6°F 42.4°F5.8°F 63.4°F17.4°F
Dew Point 19.2°F-7.1°F 0.0°F-17.8°F 12.0°F-11.1°F
Winds 10.6 mph NE17.1 mph NE Calm Calm 2.4 mph 3.9 mph
Wind Gusts 59.8 mph96.2 mph -- 14.8 mph23.8 mph
Humidity 29% 4% 15%
Pressure 30.09 in1019.00 in 29.89 in1012.20 in -
Precipitation 0.00 in0.00 in - -
Hour Temp Dew Point Humidity Winds Wind Gusts Pressure Precip Precip Rate Daily Precip Total
12:07 AM 45.4°F7.4°C 5.5°F-14.7°C 19% Calm Calm -- 30.09 in1019.0 mb 0.00 in0.0 mm 0.00 in/hr0.0 mm/hr 0.00 in0.0 mm
12:18 AM 45.4°F7.4°C 5.5°F-14.7°C 19% Calm Calm -- 30.09 in1019.0 mb 0.00 in0.0 mm 0.00 in/hr0.0 mm/hr 0.00 in0.0 mm
12:28 AM 44.7°F7.1°C 6.0°F-14.4°C 20% Calm Calm -- 30.09 in1019.0 mb 0.00 in0.0 mm 0.00 in/hr0.0 mm/hr 0.00 in0.0 mm
12:39 AM 44.7°F7.1°C 4.9°F-15.1°C 19% Calm Calm -- 30.08 in1018.6 mb 0.00 in0.0 mm 0.00 in/hr0.0 mm/hr 0.00 in0.0 mm
12:49 AM 44.5°F6.9°C 5.8°F-14.6°C 20% Calm Calm -- 30.08 in1018.6 mb 0.00 in0.0 mm 0.00 in/hr0.0 mm/hr 0.00 in0.0 mm
12:59 AM 44.7°F7.1°C 4.9°F-15.1°C 19% Calm Calm -- 30.09 in1019.0 mb 0.00 in0.0 mm 0.00 in/hr0.0 mm/hr 0.00 in0.0 mm
01:10 AM 44.5°F6.9°C 6.9°F-13.9°C 21% Calm Calm -- 30.08 in1018.6 mb 0.00 in0.0 mm 0.00 in/hr0.0 mm/hr 0.00 in0.0 mm
01:20 AM 44.0°F6.7°C 6.5°F-14.2°C 21% Calm Calm -- 30.08 in1018.6 mb 0.00 in0.0 mm 0.00 in/hr0.0 mm/hr 0.00 in0.0 mm
01:31 AM 43.8°F6.6°C 6.3°F-14.3°C 21% Calm Calm -- 30.08 in1018.6 mb 0.00 in0.0 mm 0.00 in/hr0.0 mm/hr 0.00 in0.0 mm
01:41 AM 43.6°F6.4°C 6.1°F-14.4°C 21% Calm Calm -- 30.07 in1018.3 mb 0.00 in0.0 mm 0.00 in/hr0.0 mm/hr 0.00 in0.0 mm
01:52 AM 43.6°F6.4°C 6.1°F-14.4°C 21% Calm Calm -- 30.07 in1018.3 mb 0.00 in0.0 mm 0.00 in/hr0.0 mm/hr 0.00 in0.0 mm
02:02 AM 43.3°F6.3°C 5.9°F-14.5°C 21% Calm Calm -- 30.07 in1018.3 mb 0.00 in0.0 mm 0.00 in/hr0.0 mm/hr 0.00 in0.0 mm
02:13 AM 43.6°F6.4°C 6.1°F-14.4°C 21% Calm Calm -- 30.07 in1018.3 mb 0.00 in0.0 mm 0.00 in/hr0.0 mm/hr 0.00 in0.0 mm
02:23 AM 43.3°F6.3°C 5.9°F-14.5°C 21% Calm Calm -- 30.07 in1018.3 mb 0.00 in0.0 mm 0.00 in/hr0.0 mm/hr 0.00 in0.0 mm
02:34 AM 42.6°F5.9°C 6.3°F-14.3°C 22% Calm Calm -- 30.07 in1018.3 mb 0.00 in0.0 mm 0.00 in/hr0.0 mm/hr 0.00 in0.0 mm
02:44 AM 42.4°F5.8°C 6.1°F-14.4°C 22% Calm Calm -- 30.07 in1018.3 mb 0.00 in0.0 mm 0.00 in/hr0.0 mm/hr 0.00 in0.0 mm
02:55 AM 43.5°F6.4°C 13.1°F-10.5°C 29% 1.2 mph SSW1.9 kmh SSW 1.6 mph2.6 kmh 30.07 in1018.3 mb 0.00 in0.0 mm 0.00 in/hr0.0 mm/hr 0.00 in0.0 mm
03:05 AM 50.1°F10.1°C 16.4°F-8.7°C 26% Calm Calm 5.2 mph8.4 kmh 30.07 in1018.3 mb 0.00 in0.0 mm 0.00 in/hr0.0 mm/hr 0.00 in0.0 mm
03:16 AM 50.5°F10.3°C 16.7°F-8.5°C 26% Calm Calm -- 30.07 in1018.3 mb 0.00 in0.0 mm 0.00 in/hr0.0 mm/hr 0.00 in0.0 mm
03:26 AM 51.0°F10.6°C 17.1°F-8.3°C 26% Calm Calm -- 30.06 in1017.9 mb 0.00 in0.0 mm 0.00 in/hr0.0 mm/hr 0.00 in0.0 mm
03:37 AM 51.2°F10.7°C 17.3°F-8.2°C 26% 5.3 mph SW8.5 kmh SW 7.0 mph11.3 kmh 30.06 in1017.9 mb 0.00 in0.0 mm 0.00 in/hr0.0 mm/hr 0.00 in0.0 mm
03:47 AM 51.4°F10.8°C 17.5°F-8.1°C 26% 1.2 mph S1.9 kmh S 1.6 mph2.6 kmh 30.06 in1017.9 mb 0.00 in0.0 mm 0.00 in/hr0.0 mm/hr 0.00 in0.0 mm
03:57 AM 51.7°F10.9°C 17.7°F-7.9°C 26% 0.6 mph SSE1.0 kmh SSE 1.6 mph2.6 kmh 30.06 in1017.9 mb 0.00 in0.0 mm 0.00 in/hr0.0 mm/hr 0.00 in0.0 mm
04:08 AM 52.5°F11.4°C 18.4°F-7.6°C 26% Calm Calm 4.0 mph6.4 kmh 30.06 in1017.9 mb 0.00 in0.0 mm 0.00 in/hr0.0 mm/hr 0.00 in0.0 mm
04:18 AM 52.5°F11.4°C 18.4°F-7.6°C 26% Calm Calm -- 30.06 in1017.9 mb 0.00 in0.0 mm 0.00 in/hr0.0 mm/hr 0.00 in0.0 mm
04:29 AM 52.6°F11.4°C 18.5°F-7.5°C 26% Calm Calm 1.2 mph1.9 kmh 30.06 in1017.9 mb 0.00 in0.0 mm 0.00 in/hr0.0 mm/hr 0.00 in0.0 mm
04:39 AM 52.8°F11.6°C 18.7°F-7.4°C 26% 1.9 mph SW3.1 kmh SW 2.6 mph4.2 kmh 30.06 in1017.9 mb 0.00 in0.0 mm 0.00 in/hr0.0 mm/hr 0.00 in0.0 mm
04:50 AM 53.0°F11.7°C 18.8°F-7.3°C 26% 3.4 mph SSE5.5 kmh SSE 8.0 mph12.9 kmh 30.06 in1017.9 mb 0.00 in0.0 mm 0.00 in/hr0.0 mm/hr 0.00 in0.0 mm
05:00 AM 52.6°F11.4°C 18.5°F-7.5°C 26% 0.9 mph SSW1.4 kmh SSW 8.0 mph12.9 kmh 30.06 in1017.9 mb 0.00 in0.0 mm 0.00 in/hr0.0 mm/hr 0.00 in0.0 mm
05:11 AM 52.5°F11.4°C 18.4°F-7.6°C 26% 1.4 mph SSE2.3 kmh SSE 3.0 mph4.8 kmh 30.06 in1017.9 mb 0.00 in0.0 mm 0.00 in/hr0.0 mm/hr 0.00 in0.0 mm
05:21 AM 52.3°F11.3°C 18.2°F-7.7°C 26% 1.7 mph SW2.7 kmh SW 2.2 mph3.5 kmh 30.06 in1017.9 mb 0.00 in0.0 mm 0.00 in/hr0.0 mm/hr 0.00 in0.0 mm
05:32 AM 51.7°F10.9°C 18.6°F-7.4°C 27% 2.0 mph S3.2 kmh S 59.8 mph96.2 kmh 30.06 in1017.9 mb 0.00 in0.0 mm 0.00 in/hr0.0 mm/hr 0.00 in0.0 mm
05:42 AM 51.9°F11.1°C 18.8°F-7.3°C 27% 3.6 mph WSW5.8 kmh WSW 4.8 mph7.7 kmh 30.06 in1017.9 mb 0.00 in0.0 mm 0.00 in/hr0.0 mm/hr 0.00 in0.0 mm
05:53 AM 51.9°F11.1°C 18.8°F-7.3°C 27% 2.2 mph SW3.5 kmh SW 4.8 mph7.7 kmh 30.06 in1017.9 mb 0.00 in0.0 mm 0.00 in/hr0.0 mm/hr 0.00 in0.0 mm
06:03 AM 52.3°F11.3°C 18.2°F-7.7°C 26% Calm Calm 4.4 mph7.1 kmh 30.06 in1017.9 mb 0.00 in0.0 mm 0.00 in/hr0.0 mm/hr 0.00 in0.0 mm
06:14 AM 53.5°F11.9°C 18.4°F-7.6°C 25% 4.7 mph WSW7.6 kmh WSW 8.0 mph12.9 kmh 30.07 in1018.3 mb 0.00 in0.0 mm 0.00 in/hr0.0 mm/hr 0.00 in0.0 mm
06:24 AM 55.3°F12.9°C 19.0°F-7.2°C 24% 2.9 mph SW4.7 kmh SW 36.2 mph58.3 kmh 30.06 in1017.9 mb 0.00 in0.0 mm 0.00 in/hr0.0 mm/hr 0.00 in0.0 mm
06:35 AM 56.6°F13.7°C 18.1°F-7.7°C 22% 3.5 mph SSE5.6 kmh SSE 41.0 mph66.0 kmh 30.06 in1017.9 mb 0.00 in0.0 mm 0.00 in/hr0.0 mm/hr 0.00 in0.0 mm
06:45 AM 58.2°F14.6°C 18.3°F-7.6°C 21% Calm Calm 4.4 mph7.1 kmh 30.06 in1017.9 mb 0.00 in0.0 mm 0.00 in/hr0.0 mm/hr 0.00 in0.0 mm
06:56 AM 58.9°F14.9°C 18.9°F-7.3°C 21% 2.7 mph SE4.3 kmh SE 39.2 mph63.1 kmh 30.06 in1017.9 mb 0.00 in0.0 mm 0.00 in/hr0.0 mm/hr 0.00 in0.0 mm
07:06 AM 60.1°F15.6°C 18.8°F-7.3°C 20% 6.6 mph SSE10.6 kmh SSE 8.8 mph14.2 kmh 30.06 in1017.9 mb 0.00 in0.0 mm 0.00 in/hr0.0 mm/hr 0.00 in0.0 mm
07:17 AM 60.6°F15.9°C 19.2°F-7.1°C 20% 3.8 mph SW6.1 kmh SW 51.8 mph83.4 kmh 30.07 in1018.3 mb 0.00 in0.0 mm 0.00 in/hr0.0 mm/hr 0.00 in0.0 mm
07:27 AM 61.0°F16.1°C 18.4°F-7.6°C 19% 6.3 mph SE10.1 kmh SE 21.8 mph35.1 kmh 30.07 in1018.3 mb 0.00 in0.0 mm 0.00 in/hr0.0 mm/hr 0.00 in0.0 mm
07:38 AM 62.7°F17.1°C 18.5°F-7.5°C 18% 6.0 mph SSW9.7 kmh SSW 9.8 mph15.8 kmh 30.07 in1018.3 mb 0.00 in0.0 mm 0.00 in/hr0.0 mm/hr 0.00 in0.0 mm
07:48 AM 62.5°F16.9°C 18.3°F-7.6°C 18% 5.2 mph S8.4 kmh S 33.4 mph53.8 kmh 30.07 in1018.3 mb 0.00 in0.0 mm 0.00 in/hr0.0 mm/hr 0.00 in0.0 mm
07:59 AM 63.3°F17.4°C 17.7°F-7.9°C 17% 5.7 mph SSW9.2 kmh SSW 8.4 mph13.5 kmh 30.07 in1018.3 mb 0.00 in0.0 mm 0.00 in/hr0.0 mm/hr 0.00 in0.0 mm
08:09 AM 64.6°F18.1°C 18.7°F-7.4°C 17% 2.4 mph SSE3.9 kmh SSE 7.6 mph12.2 kmh 30.06 in1017.9 mb 0.00 in0.0 mm 0.00 in/hr0.0 mm/hr 0.00 in0.0 mm
08:20 AM 63.5°F17.5°C 17.9°F-7.8°C 17% 1.7 mph SSE2.7 kmh SSE 56.8 mph91.4 kmh 30.06 in1017.9 mb 0.00 in0.0 mm 0.00 in/hr0.0 mm/hr 0.00 in0.0 mm
08:30 AM 63.9°F17.7°C 18.1°F-7.7°C 17% 6.0 mph SSE9.7 kmh SSE 33.4 mph53.8 kmh 30.06 in1017.9 mb 0.00 in0.0 mm 0.00 in/hr0.0 mm/hr 0.00 in0.0 mm
08:41 AM 64.3°F17.9°C 18.5°F-7.5°C 17% 3.9 mph ESE6.3 kmh ESE 5.8 mph9.3 kmh 30.07 in1018.3 mb 0.00 in0.0 mm 0.00 in/hr0.0 mm/hr 0.00 in0.0 mm
08:51 AM 63.5°F17.5°C 17.9°F-7.8°C 17% 6.0 mph ESE9.7 kmh ESE 8.4 mph13.5 kmh 30.07 in1018.3 mb 0.00 in0.0 mm 0.00 in/hr0.0 mm/hr 0.00 in0.0 mm
09:02 AM 64.1°F17.8°C 18.3°F-7.6°C 17% 3.8 mph SE6.1 kmh SE 35.2 mph56.6 kmh 30.07 in1018.3 mb 0.00 in0.0 mm 0.00 in/hr0.0 mm/hr 0.00 in0.0 mm
09:12 AM 64.5°F18.1°C 17.2°F-8.2°C 16% 3.0 mph SSE4.8 kmh SSE 9.2 mph14.8 kmh 30.06 in1017.9 mb 0.00 in0.0 mm 0.00 in/hr0.0 mm/hr 0.00 in0.0 mm
09:23 AM 64.7°F18.2°C 17.4°F-8.1°C 16% 7.2 mph SE11.6 kmh SE 41.6 mph66.9 kmh 30.06 in1017.9 mb 0.00 in0.0 mm 0.00 in/hr0.0 mm/hr 0.00 in0.0 mm
09:33 AM 66.9°F19.4°C 19.2°F-7.1°C 16% 3.0 mph SSE4.8 kmh SSE 41.6 mph66.9 kmh 30.06 in1017.9 mb 0.00 in0.0 mm 0.00 in/hr0.0 mm/hr 0.00 in0.0 mm
09:44 AM 65.7°F18.7°C 16.7°F-8.5°C 15% 7.8 mph SE12.6 kmh SE 39.2 mph63.1 kmh 30.06 in1017.9 mb 0.00 in0.0 mm 0.00 in/hr0.0 mm/hr 0.00 in0.0 mm
09:54 AM 66.0°F18.9°C 18.5°F-7.5°C 16% Calm Calm 38.8 mph62.4 kmh 30.06 in1017.9 mb 0.00 in0.0 mm 0.00 in/hr0.0 mm/hr 0.00 in0.0 mm
10:04 AM 64.1°F17.8°C 16.9°F-8.4°C 16% 6.7 mph SE10.8 kmh SE 17.0 mph27.4 kmh 30.06 in1017.9 mb 0.00 in0.0 mm 0.00 in/hr0.0 mm/hr 0.00 in0.0 mm
10:15 AM 64.0°F17.8°C 16.8°F-8.4°C 16% 7.7 mph SE12.4 kmh SE 34.0 mph54.7 kmh 30.06 in1017.9 mb 0.00 in0.0 mm 0.00 in/hr0.0 mm/hr 0.00 in0.0 mm
10:25 AM 66.8°F19.3°C 17.6°F-8.0°C 15% 8.7 mph SE14.0 kmh SE 57.2 mph92.1 kmh 30.06 in1017.9 mb 0.00 in0.0 mm 0.00 in/hr0.0 mm/hr 0.00 in0.0 mm
10:36 AM 68.0°F20.0°C 18.5°F-7.5°C 15% 0.9 mph SSE1.4 kmh SSE 48.6 mph78.2 kmh 30.06 in1017.9 mb 0.00 in0.0 mm 0.00 in/hr0.0 mm/hr 0.00 in0.0 mm
10:46 AM 68.1°F20.1°C 15.2°F-9.3°C 13% 7.4 mph SSE11.9 kmh SSE 46.0 mph74.0 kmh 30.06 in1017.9 mb 0.00 in0.0 mm 0.00 in/hr0.0 mm/hr 0.00 in0.0 mm
10:57 AM 67.4°F19.7°C 18.0°F-7.8°C 15% 6.9 mph SE11.1 kmh SE 55.4 mph89.2 kmh 30.05 in1017.6 mb 0.00 in0.0 mm 0.00 in/hr0.0 mm/hr 0.00 in0.0 mm
11:07 AM 69.1°F20.6°C 16.0°F-8.9°C 13% 6.2 mph S10.0 kmh S 30.4 mph48.9 kmh 30.05 in1017.6 mb 0.00 in0.0 mm 0.00 in/hr0.0 mm/hr 0.00 in0.0 mm
11:18 AM 69.4°F20.8°C 14.4°F-9.8°C 12% 9.8 mph SE15.8 kmh SE 45.0 mph72.4 kmh 30.05 in1017.6 mb 0.00 in0.0 mm 0.00 in/hr0.0 mm/hr 0.00 in0.0 mm
11:28 AM 68.0°F20.0°C 15.2°F-9.3°C 13% 6.0 mph SE9.7 kmh SE 27.6 mph44.4 kmh 30.04 in1017.3 mb 0.00 in0.0 mm 0.00 in/hr0.0 mm/hr 0.00 in0.0 mm
11:39 AM 68.6°F20.3°C 13.8°F-10.1°C 12% 3.2 mph SE5.1 kmh SE 36.2 mph58.3 kmh 30.04 in1017.3 mb 0.00 in0.0 mm 0.00 in/hr0.0 mm/hr 0.00 in0.0 mm
11:49 AM 70.4°F21.3°C 15.1°F-9.4°C 12% 5.0 mph ESE8.0 kmh ESE 36.6 mph58.9 kmh 30.03 in1016.9 mb 0.00 in0.0 mm 0.00 in/hr0.0 mm/hr 0.00 in0.0 mm
12:00 PM 69.6°F20.9°C 14.6°F-9.7°C 12% 4.4 mph ESE7.1 kmh ESE 55.4 mph89.2 kmh 30.02 in1016.6 mb 0.00 in0.0 mm 0.00 in/hr0.0 mm/hr 0.00 in0.0 mm
12:10 PM 69.4°F20.8°C 14.4°F-9.8°C 12% 6.0 mph ESE9.7 kmh ESE 21.8 mph35.1 kmh 30.02 in1016.6 mb 0.00 in0.0 mm 0.00 in/hr0.0 mm/hr 0.00 in0.0 mm
12:21 PM 71.2°F21.8°C 15.8°F-9.0°C 12% 7.6 mph SE12.2 kmh SE 42.0 mph67.6 kmh 30.01 in1016.3 mb 0.00 in0.0 mm 0.00 in/hr0.0 mm/hr 0.00 in0.0 mm
12:31 PM 71.7°F22.1°C 14.1°F-9.9°C 11% 2.3 mph SE3.7 kmh SE 56.8 mph91.4 kmh 30.01 in1016.3 mb 0.00 in0.0 mm 0.00 in/hr0.0 mm/hr 0.00 in0.0 mm
12:42 PM 72.9°F22.7°C 15.1°F-9.4°C 11% 2.8 mph SE4.5 kmh SE 22.8 mph36.7 kmh 30.01 in1016.3 mb 0.00 in0.0 mm 0.00 in/hr0.0 mm/hr 0.00 in0.0 mm
12:52 PM 74.2°F23.4°C 16.1°F-8.8°C 11% 3.9 mph SE6.3 kmh SE 5.2 mph8.4 kmh 30.00 in1015.9 mb 0.00 in0.0 mm 0.00 in/hr0.0 mm/hr 0.00 in0.0 mm
01:02 PM 72.4°F22.4°C 16.7°F-8.5°C 12% 3.7 mph ESE6.0 kmh ESE 28.6 mph46.0 kmh 30.00 in1015.9 mb 0.00 in0.0 mm 0.00 in/hr0.0 mm/hr 0.00 in0.0 mm
01:13 PM 76.4°F24.7°C 15.5°F-9.2°C 10% 5.3 mph SE8.5 kmh SE 7.6 mph12.2 kmh 30.00 in1015.9 mb 0.00 in0.0 mm 0.00 in/hr0.0 mm/hr 0.00 in0.0 mm
01:23 PM 74.0°F23.3°C 15.9°F-8.9°C 11% 4.5 mph SE7.2 kmh SE 31.6 mph50.9 kmh 29.99 in1015.6 mb 0.00 in0.0 mm 0.00 in/hr0.0 mm/hr 0.00 in0.0 mm
01:34 PM 74.0°F23.3°C 13.7°F-10.2°C 10% 5.5 mph SE8.9 kmh SE 21.4 mph34.4 kmh 29.98 in1015.2 mb 0.00 in0.0 mm 0.00 in/hr0.0 mm/hr 0.00 in0.0 mm
01:44 PM 73.8°F23.2°C 13.5°F-10.3°C 10% 5.9 mph SE9.5 kmh SE 43.8 mph70.5 kmh 29.98 in1015.2 mb 0.00 in0.0 mm 0.00 in/hr0.0 mm/hr 0.00 in0.0 mm
01:55 PM 75.9°F24.4°C 12.7°F-10.7°C 9% 7.5 mph ESE12.1 kmh ESE 43.8 mph70.5 kmh 29.97 in1014.9 mb 0.00 in0.0 mm 0.00 in/hr0.0 mm/hr 0.00 in0.0 mm
02:05 PM 75.8°F24.3°C 9.9°F-12.3°C 8% 8.2 mph SE13.2 kmh SE 35.6 mph57.3 kmh 29.96 in1014.6 mb 0.00 in0.0 mm 0.00 in/hr0.0 mm/hr 0.00 in0.0 mm
02:16 PM 76.9°F24.9°C 10.8°F-11.8°C 8% 8.7 mph SE14.0 kmh SE 46.4 mph74.7 kmh 29.96 in1014.6 mb 0.00 in0.0 mm 0.00 in/hr0.0 mm/hr 0.00 in0.0 mm
02:26 PM 77.4°F25.2°C 11.1°F-11.6°C 8% 1.2 mph SE1.9 kmh SE 29.4 mph47.3 kmh 29.95 in1014.2 mb 0.00 in0.0 mm 0.00 in/hr0.0 mm/hr 0.00 in0.0 mm
02:37 PM 75.9°F24.4°C 10.0°F-12.2°C 8% 9.9 mph SE15.9 kmh SE 49.6 mph79.8 kmh 29.95 in1014.2 mb 0.00 in0.0 mm 0.00 in/hr0.0 mm/hr 0.00 in0.0 mm
02:47 PM 77.3°F25.2°C 11.1°F-11.6°C 8% 3.0 mph SE4.8 kmh SE 30.8 mph49.6 kmh 29.94 in1013.9 mb 0.00 in0.0 mm 0.00 in/hr0.0 mm/hr 0.00 in0.0 mm
02:58 PM 79.7°F26.5°C 6.6°F-14.1°C 6% 2.3 mph SE3.7 kmh SE 43.8 mph70.5 kmh 29.94 in1013.9 mb 0.00 in0.0 mm 0.00 in/hr0.0 mm/hr 0.00 in0.0 mm
03:08 PM 79.3°F26.3°C 12.5°F-10.8°C 8% 1.8 mph SE2.9 kmh SE 5.2 mph8.4 kmh 29.92 in1013.2 mb 0.00 in0.0 mm 0.00 in/hr0.0 mm/hr 0.00 in0.0 mm
03:19 PM 78.7°F25.9°C 14.8°F-9.6°C 9% 2.2 mph SE3.5 kmh SE 15.2 mph24.5 kmh 29.92 in1013.2 mb 0.00 in0.0 mm 0.00 in/hr0.0 mm/hr 0.00 in0.0 mm
03:29 PM 78.6°F25.9°C 12.0°F-11.1°C 8% 7.3 mph NE11.7 kmh NE 22.2 mph35.7 kmh 29.91 in1012.9 mb 0.00 in0.0 mm 0.00 in/hr0.0 mm/hr 0.00 in0.0 mm
03:40 PM 79.8°F26.6°C 6.7°F-14.1°C 6% Calm Calm 20.0 mph32.2 kmh 29.91 in1012.9 mb 0.00 in0.0 mm 0.00 in/hr0.0 mm/hr 0.00 in0.0 mm
03:50 PM 78.4°F25.8°C 8.9°F-12.8°C 7% 10.6 mph NE17.1 kmh NE 41.6 mph66.9 kmh 29.91 in1012.9 mb 0.00 in0.0 mm 0.00 in/hr0.0 mm/hr 0.00 in0.0 mm
04:01 PM 78.6°F25.9°C 5.8°F-14.6°C 6% 5.6 mph NE9.0 kmh NE 30.8 mph49.6 kmh 29.91 in1012.9 mb 0.00 in0.0 mm 0.00 in/hr0.0 mm/hr 0.00 in0.0 mm
04:11 PM 80.5°F26.9°C 10.5°F-11.9°C 7% Calm Calm 6.6 mph10.6 kmh 29.91 in1012.9 mb 0.00 in0.0 mm 0.00 in/hr0.0 mm/hr 0.00 in0.0 mm
04:21 PM 80.0°F26.7°C 6.8°F-14.0°C 6% 2.6 mph ENE4.2 kmh ENE 3.4 mph5.5 kmh 29.90 in1012.5 mb 0.00 in0.0 mm 0.00 in/hr0.0 mm/hr 0.00 in0.0 mm
04:32 PM 83.0°F28.3°C 12.3°F-10.9°C 7% Calm Calm -- 29.90 in1012.5 mb 0.00 in0.0 mm 0.00 in/hr0.0 mm/hr 0.00 in0.0 mm
04:42 PM 82.4°F28.0°C 5.0°F-15.0°C 5% 2.6 mph S4.2 kmh S 3.4 mph5.5 kmh 29.90 in1012.5 mb 0.00 in0.0 mm 0.00 in/hr0.0 mm/hr 0.00 in0.0 mm
04:53 PM 83.5°F28.6°C 5.8°F-14.6°C 5% 0.6 mph NW1.0 kmh NW 3.4 mph5.5 kmh 29.90 in1012.5 mb 0.00 in0.0 mm 0.00 in/hr0.0 mm/hr 0.00 in0.0 mm
05:03 PM 83.3°F28.5°C 5.6°F-14.7°C 5% 4.2 mph W6.8 kmh W 29.0 mph46.7 kmh 29.90 in1012.5 mb 0.00 in0.0 mm 0.00 in/hr0.0 mm/hr 0.00 in0.0 mm
05:14 PM 82.3°F27.9°C 4.9°F-15.1°C 5% Calm Calm 39.2 mph63.1 kmh 29.90 in1012.5 mb 0.00 in0.0 mm 0.00 in/hr0.0 mm/hr 0.00 in0.0 mm
05:24 PM 82.4°F28.0°C 1.0°F-17.2°C 4% 2.3 mph WSW3.7 kmh WSW 3.0 mph4.8 kmh 29.90 in1012.5 mb 0.00 in0.0 mm 0.00 in/hr0.0 mm/hr 0.00 in0.0 mm
05:35 PM 81.5°F27.5°C 0.4°F-17.6°C 4% Calm Calm 4.8 mph7.7 kmh 29.89 in1012.2 mb 0.00 in0.0 mm 0.00 in/hr0.0 mm/hr 0.00 in0.0 mm
05:45 PM 80.9°F27.2°C 0.0°F-17.8°C 4% 0.9 mph WSW1.4 kmh WSW 1.6 mph2.6 kmh 29.90 in1012.5 mb 0.00 in0.0 mm 0.00 in/hr0.0 mm/hr 0.00 in0.0 mm
05:56 PM 80.0°F26.7°C 3.3°F-15.9°C 5% Calm Calm -- 29.90 in1012.5 mb 0.00 in0.0 mm 0.00 in/hr0.0 mm/hr 0.00 in0.0 mm
06:06 PM 79.3°F26.3°C 2.8°F-16.2°C 5% 0.6 mph W1.0 kmh W 2.2 mph3.5 kmh 29.90 in1012.5 mb 0.00 in0.0 mm 0.00 in/hr0.0 mm/hr 0.00 in0.0 mm
06:17 PM 77.1°F25.1°C 4.7°F-15.2°C 6% Calm Calm -- 29.89 in1012.2 mb 0.00 in0.0 mm 0.00 in/hr0.0 mm/hr 0.00 in0.0 mm
06:27 PM 74.5°F23.6°C 2.9°F-16.2°C 6% Calm Calm -- 29.90 in1012.5 mb 0.00 in0.0 mm 0.00 in/hr0.0 mm/hr 0.00 in0.0 mm
06:38 PM 72.8°F22.7°C 4.8°F-15.1°C 7% Calm Calm -- 29.90 in1012.5 mb 0.00 in0.0 mm 0.00 in/hr0.0 mm/hr 0.00 in0.0 mm
06:48 PM 71.3°F21.8°C 3.7°F-15.7°C 7% Calm Calm -- 29.90 in1012.5 mb 0.00 in0.0 mm 0.00 in/hr0.0 mm/hr 0.00 in0.0 mm
06:59 PM 70.5°F21.4°C 3.1°F-16.1°C 7% Calm Calm 8.8 mph14.2 kmh 29.90 in1012.5 mb 0.00 in0.0 mm 0.00 in/hr0.0 mm/hr 0.00 in0.0 mm
07:09 PM 69.0°F20.6°C 7.5°F-13.6°C 9% Calm Calm -- 29.90 in1012.5 mb 0.00 in0.0 mm 0.00 in/hr0.0 mm/hr 0.00 in0.0 mm
07:19 PM 68.5°F20.3°C 7.1°F-13.8°C 9% Calm Calm -- 29.91 in1012.9 mb 0.00 in0.0 mm 0.00 in/hr0.0 mm/hr 0.00 in0.0 mm
07:30 PM 67.0°F19.4°C 8.3°F-13.2°C 10% Calm Calm -- 29.91 in1012.9 mb 0.00 in0.0 mm 0.00 in/hr0.0 mm/hr 0.00 in0.0 mm
07:40 PM 66.3°F19.1°C 7.8°F-13.4°C 10% Calm Calm -- 29.91 in1012.9 mb 0.00 in0.0 mm 0.00 in/hr0.0 mm/hr 0.00 in0.0 mm
07:51 PM 66.0°F18.9°C 9.7°F-12.4°C 11% Calm Calm -- 29.92 in1013.2 mb 0.00 in0.0 mm 0.00 in/hr0.0 mm/hr 0.00 in0.0 mm
08:01 PM 65.6°F18.7°C 9.4°F-12.6°C 11% Calm Calm -- 29.92 in1013.2 mb 0.00 in0.0 mm 0.00 in/hr0.0 mm/hr 0.00 in0.0 mm
08:12 PM 65.1°F18.4°C 9.0°F-12.8°C 11% Calm Calm -- 29.92 in1013.2 mb 0.00 in0.0 mm 0.00 in/hr0.0 mm/hr 0.00 in0.0 mm
08:22 PM 65.4°F18.6°C 9.3°F-12.6°C 11% 3.0 mph WNW4.8 kmh WNW 4.8 mph7.7 kmh 29.93 in1013.5 mb 0.00 in0.0 mm 0.00 in/hr0.0 mm/hr 0.00 in0.0 mm
08:33 PM 65.8°F18.8°C 9.6°F-12.4°C 11% Calm Calm 6.6 mph10.6 kmh 29.93 in1013.5 mb 0.00 in0.0 mm 0.00 in/hr0.0 mm/hr 0.00 in0.0 mm
08:43 PM 65.6°F18.7°C 9.4°F-12.6°C 11% Calm Calm 6.2 mph10.0 kmh 29.93 in1013.5 mb 0.00 in0.0 mm 0.00 in/hr0.0 mm/hr 0.00 in0.0 mm
08:54 PM 65.1°F18.4°C 9.0°F-12.8°C 11% 4.6 mph WNW7.4 kmh WNW 6.2 mph10.0 kmh 29.93 in1013.5 mb 0.00 in0.0 mm 0.00 in/hr0.0 mm/hr 0.00 in0.0 mm
09:04 PM 63.4°F17.4°C 7.7°F-13.5°C 11% Calm Calm 1.2 mph1.9 kmh 29.94 in1013.9 mb 0.00 in0.0 mm 0.00 in/hr0.0 mm/hr 0.00 in0.0 mm
09:15 PM 63.6°F17.6°C 9.9°F-12.3°C 12% Calm Calm -- 29.94 in1013.9 mb 0.00 in0.0 mm 0.00 in/hr0.0 mm/hr 0.00 in0.0 mm
09:25 PM 62.5°F16.9°C 9.0°F-12.8°C 12% Calm Calm -- 29.94 in1013.9 mb 0.00 in0.0 mm 0.00 in/hr0.0 mm/hr 0.00 in0.0 mm
09:36 PM 62.2°F16.8°C 8.8°F-12.9°C 12% 2.6 mph WNW4.2 kmh WNW 7.6 mph12.2 kmh 29.94 in1013.9 mb 0.00 in0.0 mm 0.00 in/hr0.0 mm/hr 0.00 in0.0 mm
09:46 PM 61.6°F16.4°C 10.1°F-12.2°C 13% Calm Calm 3.4 mph5.5 kmh 29.93 in1013.5 mb 0.00 in0.0 mm 0.00 in/hr0.0 mm/hr 0.00 in0.0 mm
09:57 PM 62.0°F16.7°C 8.6°F-13.0°C 12% Calm Calm 1.6 mph2.6 kmh 29.93 in1013.5 mb 0.00 in0.0 mm 0.00 in/hr0.0 mm/hr 0.00 in0.0 mm
10:07 PM 62.0°F16.7°C 8.6°F-13.0°C 12% Calm Calm 4.8 mph7.7 kmh 29.94 in1013.9 mb 0.00 in0.0 mm 0.00 in/hr0.0 mm/hr 0.00 in0.0 mm
10:18 PM 60.9°F16.1°C 9.6°F-12.4°C 13% Calm Calm -- 29.94 in1013.9 mb 0.00 in0.0 mm 0.00 in/hr0.0 mm/hr 0.00 in0.0 mm
10:28 PM 59.8°F15.4°C 8.7°F-12.9°C 13% Calm Calm -- 29.94 in1013.9 mb 0.00 in0.0 mm 0.00 in/hr0.0 mm/hr 0.00 in0.0 mm
10:38 PM 58.2°F14.6°C 9.1°F-12.7°C 14% Calm Calm -- 29.94 in1013.9 mb 0.00 in0.0 mm 0.00 in/hr0.0 mm/hr 0.00 in0.0 mm
10:49 PM 57.9°F14.4°C 8.9°F-12.8°C 14% Calm Calm -- 29.93 in1013.5 mb 0.00 in0.0 mm 0.00 in/hr0.0 mm/hr 0.00 in0.0 mm
10:59 PM 57.3°F14.1°C 9.9°F-12.3°C 15% Calm Calm -- 29.93 in1013.5 mb 0.00 in0.0 mm 0.00 in/hr0.0 mm/hr 0.00 in0.0 mm
11:10 PM 56.8°F13.8°C 9.5°F-12.5°C 15% Calm Calm -- 29.93 in1013.5 mb 0.00 in0.0 mm 0.00 in/hr0.0 mm/hr 0.00 in0.0 mm
11:20 PM 56.4°F13.6°C 9.2°F-12.7°C 15% Calm Calm -- 29.93 in1013.5 mb 0.00 in0.0 mm 0.00 in/hr0.0 mm/hr 0.00 in0.0 mm
11:31 PM 55.2°F12.9°C 11.1°F-11.6°C 17% Calm Calm -- 29.93 in1013.5 mb 0.00 in0.0 mm 0.00 in/hr0.0 mm/hr 0.00 in0.0 mm
11:41 PM 54.1°F12.3°C 11.5°F-11.4°C 18% Calm Calm -- 29.93 in1013.5 mb 0.00 in0.0 mm 0.00 in/hr0.0 mm/hr 0.00 in0.0 mm
11:52 PM 53.0°F11.7°C 10.6°F-11.9°C 18% Calm Calm -- 29.93 in1013.5 mb 0.00 in0.0 mm 0.00 in/hr0.0 mm/hr 0.00 in0.0 mm